Panda — PBCS — position and weather

sailwx.info

Track history (hours):
 
Tides and Currents Weather Stations Pressure Air Temp Water Temp Dewpoint Dewpoint Depression Visibility Wind Speed Wind Dir Waves Ship Positions

Panda

Last reported at 2014-Sep-15 20:16 UTC. Time now 2014-Sep-19 09:54 UTC.
Position N 36°41' E 014°36'.

Length 89 m; draft 4.2 m.

Type: Cargo ship. MMSI: 245014000.

Date/timePositionNaut miles runAvg speedWind from/ knotsBaromVisibWave heightAir tempDewpointWater temp
2014-Sep-15 20:16N 36°41' E 014°36'7 9.2
2014-Sep-15 19:30N 36°43' E 014°27'9 9.1
2014-Sep-15 18:34N 36°46' E 014°18'9 9.0
2014-Sep-15 17:34N 36°50' E 014°07'9 8.9
2014-Sep-15 16:33N 36°54' E 013°57'11 9.3
2014-Sep-15 15:25N 36°58' E 013°45'8 9.4
2014-Sep-15 14:33N 37°01' E 013°36'9 9.3
2014-Sep-15 13:33N 37°05' E 013°25'  
2014-Sep-13 06:29N 40°26' E 003°13'9 9.2
2014-Sep-13 05:33N 40°29' E 003°03'9 9.0
2014-Sep-13 04:33N 40°33' E 002°52'9 9.3
2014-Sep-13 03:33N 40°36' E 002°41'9 9.4
2014-Sep-13 02:33N 40°40' E 002°29'9 9.2
2014-Sep-13 01:33N 40°44' E 002°18'9 9.1
2014-Sep-13 00:33N 40°47' E 002°07'10 9.5
2014-Sep-12 23:33N 40°51' E 001°55'10 9.5
2014-Sep-12 22:32N 40°54' E 001°43'25 1.0
2014-Sep-11 20:10N 41°06' E 001°14'1 0.2
2014-Sep-11 16:20N 41°06' E 001°13'1 1.3
2014-Sep-11 15:21N 41°06' E 001°15'0 0.0
2014-Sep-11 13:33N 41°06' E 001°15'5 4.5
2014-Sep-11 12:33N 41°06' E 001°21'18 8.5
2014-Sep-11 10:28N 41°09' E 001°44'52 8.5
2014-Sep-11 04:20N 41°33' E 002°45'6 7.9
2014-Sep-11 03:33N 41°37' E 002°52'11 8.7
2014-Sep-11 02:17N 41°44' E 003°03'6 8.5
2014-Sep-11 01:33N 41°48' E 003°10'8 7.9
2014-Sep-11 00:32N 41°54' E 003°18'9 9.1
2014-Sep-10 23:33N 42°01' E 003°25'9 8.9
2014-Sep-10 22:33N 42°07' E 003°33'18 8.8
2014-Sep-10 20:30N 42°21' E 003°49'9 9.0
2014-Sep-10 19:33N 42°28' E 003°56'9 8.8
2014-Sep-10 18:29N 42°35' E 004°04'8 8.7
2014-Sep-10 17:32N 42°41' E 004°11'10 9.0
2014-Sep-10 16:28N 42°49' E 004°20'8 8.6
2014-Sep-10 15:30N 42°55' E 004°27'12 8.6
2014-Sep-10 14:07N 43°05' E 004°38'6 9.1
2014-Sep-10 13:27N 43°09' E 004°43'7 8.0
2014-Sep-10 12:33N 43°15' E 004°49'9 9.0
2014-Sep-10 11:33N 43°22' E 004°56'5 5.2
2014-Sep-10 10:33N 43°23' E 004°49'5 5.5
2014-Sep-10 09:33N 43°28' E 004°45'  
2014-Sep-06 00:05N 43°23' E 004°49'2 3.2
2014-Sep-05 23:33N 43°23' E 004°51'7 7.1
2014-Sep-05 22:33N 43°19' E 004°59'10 9.5
2014-Sep-05 21:28N 43°11' E 004°50'9 9.5
2014-Sep-05 20:28N 43°04' E 004°41'  
Track history (hours):
 
Tides and Currents Weather Stations Pressure Air Temp Water Temp Dewpoint Dewpoint Depression Visibility Wind Speed Wind Dir Waves Ship Positions

Panda

Last reported at 2014-Sep-15 20:16 UTC. Time now 2014-Sep-19 09:54 UTC.
Position N 36°41' E 014°36'.

Length 89 m; draft 4.2 m.

Type: Cargo ship. MMSI: 245014000.

Date/timePositionNaut miles runAvg speedWind from/ knotsBaromVisibWave heightAir tempDewpointWater temp
2014-Sep-15 20:16N 36°41' E 014°36'7 9.2
2014-Sep-15 19:30N 36°43' E 014°27'9 9.1
2014-Sep-15 18:34N 36°46' E 014°18'9 9.0
2014-Sep-15 17:34N 36°50' E 014°07'9 8.9
2014-Sep-15 16:33N 36°54' E 013°57'11 9.3
2014-Sep-15 15:25N 36°58' E 013°45'8 9.4
2014-Sep-15 14:33N 37°01' E 013°36'9 9.3
2014-Sep-15 13:33N 37°05' E 013°25'  
2014-Sep-13 06:29N 40°26' E 003°13'9 9.2
2014-Sep-13 05:33N 40°29' E 003°03'9 9.0
2014-Sep-13 04:33N 40°33' E 002°52'9 9.3
2014-Sep-13 03:33N 40°36' E 002°41'9 9.4
2014-Sep-13 02:33N 40°40' E 002°29'9 9.2
2014-Sep-13 01:33N 40°44' E 002°18'9 9.1
2014-Sep-13 00:33N 40°47' E 002°07'10 9.5
2014-Sep-12 23:33N 40°51' E 001°55'10 9.5
2014-Sep-12 22:32N 40°54' E 001°43'25 1.0
2014-Sep-11 20:10N 41°06' E 001°14'1 0.2
2014-Sep-11 16:20N 41°06' E 001°13'1 1.3
2014-Sep-11 15:21N 41°06' E 001°15'0 0.0
2014-Sep-11 13:33N 41°06' E 001°15'5 4.5
2014-Sep-11 12:33N 41°06' E 001°21'18 8.5
2014-Sep-11 10:28N 41°09' E 001°44'52 8.5
2014-Sep-11 04:20N 41°33' E 002°45'6 7.9
2014-Sep-11 03:33N 41°37' E 002°52'11 8.7
2014-Sep-11 02:17N 41°44' E 003°03'6 8.5
2014-Sep-11 01:33N 41°48' E 003°10'8 7.9
2014-Sep-11 00:32N 41°54' E 003°18'9 9.1
2014-Sep-10 23:33N 42°01' E 003°25'9 8.9
2014-Sep-10 22:33N 42°07' E 003°33'18 8.8
2014-Sep-10 20:30N 42°21' E 003°49'9 9.0
2014-Sep-10 19:33N 42°28' E 003°56'9 8.8
2014-Sep-10 18:29N 42°35' E 004°04'8 8.7
2014-Sep-10 17:32N 42°41' E 004°11'10 9.0
2014-Sep-10 16:28N 42°49' E 004°20'8 8.6
2014-Sep-10 15:30N 42°55' E 004°27'12 8.6
2014-Sep-10 14:07N 43°05' E 004°38'6 9.1
2014-Sep-10 13:27N 43°09' E 004°43'7 8.0
2014-Sep-10 12:33N 43°15' E 004°49'9 9.0
2014-Sep-10 11:33N 43°22' E 004°56'5 5.2
2014-Sep-10 10:33N 43°23' E 004°49'5 5.5
2014-Sep-10 09:33N 43°28' E 004°45'  
2014-Sep-06 00:05N 43°23' E 004°49'2 3.2
2014-Sep-05 23:33N 43°23' E 004°51'7 7.1
2014-Sep-05 22:33N 43°19' E 004°59'10 9.5
2014-Sep-05 21:28N 43°11' E 004°50'9 9.5
2014-Sep-05 20:28N 43°04' E 004°41'  

Dump ship's entire track history